Time;durP1;ratioP1;P1;durP2;ratioP2;P2;SDS_P1;SDS_P2;PMS_P1;PMS_P2;Temp;Humidity;BMP_temperature;BMP_pressure;BME280_temperature;BME280_humidity;BME280_pressure;Samples;Min_cycle;Max_cycle;Signal;HPM_P1;HPM_P2
2020/12/13 00:00:27;;;;;;;89.43;56.65;;;6.60;99.90;;;;;;5070133;28;20366;-81
2020/12/13 00:02:54;;;;;;;108.07;68.07;;;6.60;99.90;;;;;;5051779;28;20390;-80
2020/12/13 00:05:20;;;;;;;91.18;57.97;;;6.60;99.90;;;;;;5051847;28;20452;-80
2020/12/13 00:07:46;;;;;;;176.52;107.35;;;6.60;99.90;;;;;;5069974;28;20377;-81
2020/12/13 00:10:12;;;;;;;102.28;62.25;;;6.60;99.90;;;;;;5051787;28;20386;-81
2020/12/13 00:12:38;;;;;;;122.35;68.47;;;6.60;99.90;;;;;;5069769;28;20366;-81
2020/12/13 00:15:05;;;;;;;103.63;56.63;;;6.60;99.90;;;;;;5069760;28;20732;-80
2020/12/13 00:17:31;;;;;;;110.07;63.57;;;6.60;99.90;;;;;;5069718;28;20393;-81
2020/12/13 00:19:57;;;;;;;139.43;74.85;;;6.60;99.90;;;;;;5069801;28;20362;-81
2020/12/13 00:22:23;;;;;;;120.93;65.68;;;6.60;99.90;;;;;;5069630;28;20377;-81
2020/12/13 00:24:49;;;;;;;89.50;51.08;;;6.60;99.90;;;;;;5051800;28;20359;-81
2020/12/13 00:27:15;;;;;;;95.67;53.93;;;6.60;99.90;;;;;;5069601;28;20381;-81
2020/12/13 00:29:41;;;;;;;148.93;76.53;;;6.60;99.90;;;;;;5069580;28;20366;-81
2020/12/13 00:32:07;;;;;;;95.47;52.25;;;6.50;99.90;;;;;;5069610;28;20370;-81
2020/12/13 00:34:33;;;;;;;119.63;61.30;;;6.60;99.90;;;;;;5032123;28;20395;-81
2020/12/13 00:37:00;;;;;;;120.30;61.55;;;6.50;99.90;;;;;;5028318;28;20424;-81
2020/12/13 00:39:27;;;;;;;116.90;61.33;;;6.50;99.90;;;;;;5029527;28;20373;-81
2020/12/13 00:41:54;;;;;;;264.33;112.63;;;6.50;99.90;;;;;;5029494;28;20376;-81
2020/12/13 00:44:21;;;;;;;170.77;80.47;;;6.50;99.90;;;;;;5029564;28;20374;-80
2020/12/13 00:46:48;;;;;;;138.10;68.30;;;6.50;99.90;;;;;;5028250;28;20365;-81
2020/12/13 00:49:15;;;;;;;193.25;114.55;;;6.50;99.90;;;;;;5033360;28;20366;-81
2020/12/13 00:51:41;;;;;;;89.82;52.03;;;6.50;99.90;;;;;;5032346;28;20380;-81
2020/12/13 00:54:07;;;;;;;174.05;83.18;;;6.50;99.90;;;;;;5033531;28;20369;-81
2020/12/13 00:56:33;;;;;;;121.45;63.88;;;6.50;99.90;;;;;;5033454;28;20376;-80
2020/12/13 00:58:58;;;;;;;90.07;52.38;;;6.50;99.90;;;;;;5033497;28;20428;-80
2020/12/13 01:01:24;;;;;;;79.80;47.22;;;6.50;99.90;;;;;;5033590;28;20816;-80
2020/12/13 01:03:50;;;;;;;107.97;57.40;;;6.50;99.90;;;;;;5034162;28;20381;-80
2020/12/13 01:06:26;;;;;;;107.40;58.42;;;6.50;99.90;;;;;;5033157;28;20409;-80
2020/12/13 01:08:53;;;;;;;81.78;45.10;;;6.50;99.90;;;;;;5033245;28;20397;-80
2020/12/13 01:11:28;;;;;;;79.60;48.22;;;6.50;99.90;;;;;;5033596;28;20400;-82
2020/12/13 01:13:55;;;;;;;101.43;54.20;;;6.50;99.90;;;;;;5033309;28;20518;-82
2020/12/13 01:16:21;;;;;;;116.45;60.03;;;6.50;99.90;;;;;;5033020;28;20384;-81
2020/12/13 01:18:47;;;;;;;115.90;58.10;;;6.50;99.90;;;;;;5033025;28;20401;-82
2020/12/13 01:21:22;;;;;;;207.38;90.28;;;6.50;99.90;;;;;;5031738;28;20375;-81
2020/12/13 01:23:48;;;;;;;149.95;72.18;;;6.50;99.90;;;;;;5033187;28;20690;-82
2020/12/13 01:26:16;;;;;;;155.93;73.07;;;6.40;99.90;;;;;;5033379;28;20396;-82
2020/12/13 01:28:42;;;;;;;105.50;54.25;;;6.50;99.90;;;;;;5031660;28;20381;-82
2020/12/13 01:31:11;;;;;;;140.23;66.68;;;6.50;99.90;;;;;;5031996;28;20913;-82
2020/12/13 01:33:37;;;;;;;127.80;62.70;;;6.50;99.90;;;;;;5048946;28;20481;-82
2020/12/13 01:36:02;;;;;;;168.57;80.28;;;6.50;99.90;;;;;;5055177;28;20516;-82
2020/12/13 01:38:29;;;;;;;108.35;55.70;;;6.50;99.90;;;;;;5072410;28;20390;-82
2020/12/13 01:40:58;;;;;;;135.00;66.60;;;6.50;99.90;;;;;;5072589;28;20362;-82
2020/12/13 01:43:24;;;;;;;96.72;53.42;;;6.40;99.90;;;;;;5072709;28;20839;-82
2020/12/13 01:45:50;;;;;;;98.70;53.33;;;6.40;99.90;;;;;;5073201;28;20373;-82
2020/12/13 01:48:17;;;;;;;103.63;53.97;;;6.40;99.90;;;;;;5072426;28;20374;-81
2020/12/13 01:50:50;;;;;;;100.40;54.63;;;6.40;99.90;;;;;;5054683;28;20377;-82
2020/12/13 01:53:24;;;;;;;108.82;51.25;;;6.40;99.90;;;;;;5054375;28;20374;-81
2020/12/13 01:55:51;;;;;;;108.25;56.25;;;6.40;99.90;;;;;;5054202;28;20374;-81
2020/12/13 01:58:51;;;;;;;173.77;87.50;;;6.50;99.90;;;;;;5053923;28;20473;-81
2020/12/13 02:01:18;;;;;;;136.57;71.88;;;6.50;99.90;;;;;;5067889;28;20427;-81
2020/12/13 02:03:51;;;;;;;100.03;53.72;;;6.50;99.90;;;;;;5054125;28;20366;-81
2020/12/13 02:06:23;;;;;;;127.43;57.33;;;6.50;99.90;;;;;;5054134;28;20893;-81
2020/12/13 02:08:50;;;;;;;123.67;60.60;;;6.40;99.90;;;;;;5053916;28;20485;-82
2020/12/13 02:11:18;;;;;;;116.65;59.42;;;6.40;99.90;;;;;;5071981;28;20875;-82
2020/12/13 02:13:47;;;;;;;110.97;54.63;;;6.50;99.90;;;;;;5053858;28;20381;-82
2020/12/13 02:16:15;;;;;;;104.23;53.43;;;6.50;99.90;;;;;;5087572;28;20740;-82
2020/12/13 02:18:43;;;;;;;113.57;58.88;;;6.40;99.90;;;;;;5053634;28;20402;-82
2020/12/13 02:21:11;;;;;;;130.75;63.67;;;6.40;99.90;;;;;;5071881;28;20453;-81
2020/12/13 02:23:39;;;;;;;133.00;66.07;;;6.50;99.90;;;;;;5071674;28;20755;-80
2020/12/13 02:26:09;;;;;;;151.90;72.70;;;6.50;99.90;;;;;;5053867;28;20366;-80
2020/12/13 02:28:35;;;;;;;128.77;62.30;;;6.50;99.90;;;;;;5071762;28;20860;-81
2020/12/13 02:31:03;;;;;;;142.65;64.80;;;6.50;99.90;;;;;;5071613;28;20776;-82
2020/12/13 02:33:30;;;;;;;187.55;83.28;;;6.50;99.90;;;;;;5071530;28;20390;-80
2020/12/13 02:35:56;;;;;;;147.48;68.78;;;6.50;99.90;;;;;;5071511;28;20455;-80
2020/12/13 02:38:22;;;;;;;141.15;67.18;;;6.50;99.90;;;;;;5053622;28;20787;-80
2020/12/13 02:40:48;;;;;;;132.38;64.95;;;6.40;99.90;;;;;;5071942;28;20400;-80
2020/12/13 02:43:13;;;;;;;122.88;57.35;;;6.40;99.90;;;;;;5053778;28;20744;-80
2020/12/13 02:45:39;;;;;;;113.97;55.15;;;6.40;99.90;;;;;;5071225;28;20374;-80
2020/12/13 02:48:05;;;;;;;109.88;55.13;;;6.40;99.90;;;;;;5071470;28;20427;-80
2020/12/13 02:50:34;;;;;;;122.13;57.17;;;6.40;99.90;;;;;;5071130;28;20365;-80
2020/12/13 02:52:59;;;;;;;124.88;59.88;;;6.40;99.90;;;;;;5071263;28;20472;-81
2020/12/13 02:55:25;;;;;;;137.10;62.47;;;6.40;99.90;;;;;;5071138;28;20358;-80
2020/12/13 02:57:51;;;;;;;138.73;62.83;;;6.40;99.90;;;;;;5070878;28;20746;-81
2020/12/13 03:00:17;;;;;;;135.23;66.45;;;6.40;99.90;;;;;;5071166;28;20366;-81
2020/12/13 03:02:43;;;;;;;115.10;57.07;;;6.40;99.90;;;;;;5053024;28;20401;-81
2020/12/13 03:05:09;;;;;;;145.57;63.13;;;6.40;99.90;;;;;;5070982;28;20389;-81
2020/12/13 03:07:35;;;;;;;131.27;63.47;;;6.40;99.90;;;;;;5070759;28;20853;-81
2020/12/13 03:10:01;;;;;;;136.75;67.15;;;6.50;99.90;;;;;;5070609;28;20373;-81
2020/12/13 03:12:27;;;;;;;134.80;62.75;;;6.50;99.90;;;;;;5070751;28;20382;-80
2020/12/13 03:14:56;;;;;;;144.50;66.88;;;6.50;99.90;;;;;;5070827;28;20365;-80
2020/12/13 03:17:22;;;;;;;135.30;62.97;;;6.50;99.90;;;;;;5070580;28;20423;-80
2020/12/13 03:19:48;;;;;;;125.68;59.65;;;6.50;99.90;;;;;;5070642;28;20393;-80
2020/12/13 03:22:14;;;;;;;117.60;57.72;;;6.50;99.90;;;;;;5070414;28;20491;-80
2020/12/13 03:24:40;;;;;;;125.38;60.10;;;6.40;99.90;;;;;;5052685;28;20461;-80
2020/12/13 03:27:06;;;;;;;123.93;58.58;;;6.40;99.90;;;;;;5070466;28;20373;-80
2020/12/13 03:29:31;;;;;;;128.68;58.42;;;6.40;99.90;;;;;;5070519;28;20400;-80
2020/12/13 03:31:57;;;;;;;98.50;51.22;;;6.40;99.90;;;;;;5052380;28;20383;-80
2020/12/13 03:34:23;;;;;;;98.78;50.40;;;6.40;99.90;;;;;;5036500;28;20470;-80
2020/12/13 03:36:49;;;;;;;101.63;50.03;;;6.50;99.90;;;;;;5029775;28;20423;-81
2020/12/13 03:39:15;;;;;;;91.22;48.95;;;6.50;99.90;;;;;;5030561;28;20845;-81
2020/12/13 03:41:41;;;;;;;95.53;48.78;;;6.40;99.90;;;;;;5029589;28;20897;-81
2020/12/13 03:44:07;;;;;;;98.50;49.70;;;6.40;99.90;;;;;;5028809;28;20385;-81
2020/12/13 03:46:33;;;;;;;110.45;50.78;;;6.40;99.90;;;;;;5030480;28;20365;-81
2020/12/13 03:48:59;;;;;;;88.47;46.67;;;6.40;99.90;;;;;;5030301;28;20353;-81
2020/12/13 03:51:25;;;;;;;71.05;40.83;;;6.40;99.90;;;;;;5030352;28;20380;-81
2020/12/13 03:53:51;;;;;;;72.40;40.30;;;6.40;99.90;;;;;;5030193;28;20845;-81
2020/12/13 03:56:17;;;;;;;64.00;37.22;;;6.40;99.90;;;;;;5030242;28;20388;-81
2020/12/13 03:58:43;;;;;;;63.33;38.30;;;6.40;99.90;;;;;;5028679;28;20393;-81
2020/12/13 04:01:08;;;;;;;82.82;40.90;;;6.40;99.90;;;;;;5028769;28;20464;-80
2020/12/13 04:03:34;;;;;;;55.85;34.55;;;6.40;99.90;;;;;;5028794;28;20750;-80
2020/12/13 04:06:00;;;;;;;60.83;35.75;;;6.30;99.90;;;;;;5029957;28;20451;-79
2020/12/13 04:08:26;;;;;;;61.20;38.15;;;6.30;99.90;;;;;;5030056;28;20848;-80
2020/12/13 04:10:51;;;;;;;61.65;36.45;;;6.30;99.90;;;;;;5028694;28;20425;-80
2020/12/13 04:13:17;;;;;;;64.50;40.83;;;6.30;99.90;;;;;;5029946;28;20373;-79
2020/12/13 04:15:43;;;;;;;58.42;35.10;;;6.30;99.90;;;;;;5029814;28;20381;-79
2020/12/13 04:18:09;;;;;;;54.72;35.22;;;6.30;99.90;;;;;;5028645;28;20930;-79
2020/12/13 04:20:35;;;;;;;54.92;32.72;;;6.30;99.90;;;;;;5029692;28;20373;-79
2020/12/13 04:23:00;;;;;;;61.58;36.15;;;6.30;99.90;;;;;;5028070;28;20907;-79
2020/12/13 04:25:26;;;;;;;62.75;36.40;;;6.30;99.90;;;;;;5028401;28;20393;-79
2020/12/13 04:27:52;;;;;;;62.78;40.00;;;6.30;99.90;;;;;;5029718;28;20464;-79
2020/12/13 04:30:18;;;;;;;61.53;38.70;;;6.30;99.90;;;;;;5029685;28;20464;-79
2020/12/13 04:32:44;;;;;;;59.92;36.90;;;6.30;99.90;;;;;;5029655;28;20381;-79
2020/12/13 04:35:11;;;;;;;57.78;36.22;;;6.30;99.90;;;;;;5028128;28;20902;-79
2020/12/13 04:37:37;;;;;;;129.63;43.80;;;6.30;99.90;;;;;;5029494;28;20403;-81
2020/12/13 04:40:04;;;;;;;55.65;34.08;;;6.40;99.90;;;;;;5028229;28;20377;-82
2020/12/13 04:42:35;;;;;;;54.53;32.70;;;6.30;99.90;;;;;;5028026;28;20427;-81
2020/12/13 04:45:04;;;;;;;90.97;52.55;;;6.30;99.90;;;;;;5029611;28;20836;-82
2020/12/13 04:47:32;;;;;;;74.53;41.90;;;6.30;99.90;;;;;;5028715;28;20849;-81
2020/12/13 04:50:03;;;;;;;62.58;37.30;;;6.30;99.90;;;;;;5029654;28;20886;-82
2020/12/13 04:52:29;;;;;;;64.40;39.65;;;6.30;99.90;;;;;;5028050;28;20512;-82
2020/12/13 04:54:55;;;;;;;58.67;34.63;;;6.30;99.90;;;;;;5029388;28;20365;-82
2020/12/13 04:57:21;;;;;;;64.72;35.45;;;6.30;99.90;;;;;;5029314;28;20376;-82
2020/12/13 04:59:49;;;;;;;61.15;34.63;;;6.30;99.90;;;;;;5028028;28;20374;-82
2020/12/13 05:02:16;;;;;;;60.67;35.90;;;6.20;99.90;;;;;;5029428;28;20852;-82
2020/12/13 05:04:43;;;;;;;66.82;35.40;;;6.30;99.90;;;;;;5027878;28;20386;-80
2020/12/13 05:07:09;;;;;;;66.70;35.05;;;6.30;99.90;;;;;;5029401;28;20365;-80
2020/12/13 05:09:38;;;;;;;62.65;35.72;;;6.30;99.90;;;;;;5029278;28;20713;-79
2020/12/13 05:12:04;;;;;;;62.13;35.23;;;6.30;99.90;;;;;;5029309;28;20384;-79
2020/12/13 05:14:30;;;;;;;61.80;34.70;;;6.20;99.90;;;;;;5029086;28;20741;-79
2020/12/13 05:17:09;;;;;;;67.20;36.65;;;6.20;99.90;;;;;;5027998;28;20370;-79
2020/12/13 05:19:37;;;;;;;73.40;41.33;;;6.20;99.90;;;;;;5029209;28;20377;-80
2020/12/13 05:22:03;;;;;;;87.10;49.70;;;6.20;99.90;;;;;;5029180;28;20928;-80
2020/12/13 05:24:29;;;;;;;77.13;43.13;;;6.20;99.90;;;;;;5029203;28;20510;-80
2020/12/13 05:27:04;;;;;;;87.07;43.47;;;6.10;99.90;;;;;;5029055;28;20436;-80
2020/12/13 05:29:32;;;;;;;78.32;41.67;;;6.10;99.90;;;;;;5029762;28;20376;-80
2020/12/13 05:32:21;;;;;;;121.50;43.60;;;6.10;99.90;;;;;;5029184;28;20841;-80
2020/12/13 05:34:49;;;;;;;76.22;40.67;;;6.10;99.90;;;;;;5063265;28;20400;-80
2020/12/13 05:37:16;;;;;;;87.22;47.80;;;6.10;99.90;;;;;;5072501;28;20358;-80
2020/12/13 05:39:52;;;;;;;80.27;43.23;;;6.10;99.90;;;;;;5054696;28;20771;-80
2020/12/13 05:42:34;;;;;;;88.40;46.38;;;6.10;99.90;;;;;;5054545;28;20714;-80
2020/12/13 05:45:21;;;;;;;87.55;50.47;;;6.00;99.90;;;;;;5072742;28;20389;-80
2020/12/13 05:52:51;;;;;;;102.30;58.35;;;6.10;99.90;;;;;;5072480;28;20452;-80
2020/12/13 05:55:18;;;;;;;97.23;52.87;;;6.10;99.90;;;;;;5054199;28;20420;-80
2020/12/13 05:57:49;;;;;;;89.07;50.17;;;6.20;99.90;;;;;;5054265;28;20935;-79
2020/12/13 06:00:16;;;;;;;86.25;43.35;;;6.20;99.90;;;;;;5072279;28;20388;-79
2020/12/13 06:02:45;;;;;;;75.38;38.35;;;6.20;99.90;;;;;;5072234;28;20385;-80
2020/12/13 06:05:15;;;;;;;75.70;38.95;;;6.30;99.90;;;;;;5054699;28;21229;-80
2020/12/13 06:07:50;;;;;;;62.30;32.33;;;6.30;99.90;;;;;;5053946;28;20382;-80
2020/12/13 06:10:26;;;;;;;62.13;31.95;;;6.20;99.90;;;;;;5072325;28;20378;-80
2020/12/13 06:13:00;;;;;;;59.63;31.35;;;6.30;99.90;;;;;;5053922;28;20389;-80
2020/12/13 06:15:28;;;;;;;84.43;45.00;;;6.20;99.90;;;;;;5087594;28;20456;-80
2020/12/13 06:17:54;;;;;;;110.70;58.20;;;6.20;99.90;;;;;;5071711;28;20888;-81
2020/12/13 06:20:20;;;;;;;93.00;49.33;;;6.30;99.90;;;;;;5071866;28;20362;-80
2020/12/13 06:22:47;;;;;;;121.07;70.07;;;6.30;99.90;;;;;;5071817;28;20362;-80
2020/12/13 06:25:13;;;;;;;99.47;59.95;;;6.30;99.90;;;;;;5072460;28;20736;-80
2020/12/13 06:27:40;;;;;;;72.63;40.67;;;6.30;99.90;;;;;;5053847;28;20866;-80
2020/12/13 06:30:09;;;;;;;62.58;36.08;;;6.30;99.90;;;;;;5071670;28;20374;-81
2020/12/13 06:32:42;;;;;;;64.95;34.15;;;6.30;99.90;;;;;;5071741;28;20370;-81
2020/12/13 06:35:09;;;;;;;64.82;33.22;;;6.30;99.90;;;;;;5071507;28;20393;-81
2020/12/13 06:37:38;;;;;;;61.97;33.80;;;6.20;99.90;;;;;;5071788;28;20420;-81
2020/12/13 06:40:08;;;;;;;74.63;38.75;;;6.30;99.90;;;;;;5053702;28;20370;-81
2020/12/13 06:42:41;;;;;;;81.05;41.03;;;6.30;99.90;;;;;;5071574;28;20423;-81
2020/12/13 06:45:09;;;;;;;114.30;43.10;;;6.30;99.90;;;;;;5070702;28;20423;-81
2020/12/13 06:47:44;;;;;;;93.27;47.43;;;6.20;99.90;;;;;;5071445;28;20366;-81
2020/12/13 06:50:24;;;;;;;96.93;49.53;;;6.30;99.90;;;;;;5071505;28;20373;-81
2020/12/13 06:52:51;;;;;;;83.90;46.15;;;6.20;99.90;;;;;;5071265;28;20370;-81
2020/12/13 06:55:18;;;;;;;98.60;48.10;;;6.30;99.90;;;;;;5071348;28;20374;-80
2020/12/13 06:57:46;;;;;;;95.15;52.97;;;6.30;99.90;;;;;;5070939;28;20532;-80
2020/12/13 07:00:12;;;;;;;94.22;48.15;;;6.30;99.90;;;;;;5071116;28;20414;-80
2020/12/13 07:02:45;;;;;;;85.30;46.55;;;6.30;99.90;;;;;;5053059;28;20370;-80
2020/12/13 07:05:12;;;;;;;77.03;43.15;;;6.30;99.90;;;;;;5071153;28;20511;-80
2020/12/13 07:07:39;;;;;;;97.83;50.93;;;6.30;99.90;;;;;;5052912;28;20389;-80
2020/12/13 07:10:08;;;;;;;105.80;60.25;;;6.30;99.90;;;;;;5071082;28;20471;-80
2020/12/13 07:12:36;;;;;;;111.90;64.18;;;6.30;99.90;;;;;;5070898;28;20409;-79
2020/12/13 07:15:15;;;;;;;172.73;91.15;;;6.30;99.90;;;;;;5052730;28;20370;-80
2020/12/13 07:17:43;;;;;;;125.70;69.07;;;6.20;99.90;;;;;;5070811;28;20393;-80
2020/12/13 07:20:08;;;;;;;121.65;67.88;;;6.20;99.90;;;;;;5070695;28;20370;-80
2020/12/13 07:22:35;;;;;;;88.67;53.07;;;6.20;99.90;;;;;;5052936;28;20929;-80
2020/12/13 07:25:01;;;;;;;106.07;55.70;;;6.20;99.90;;;;;;5052762;28;20374;-79
2020/12/13 07:27:27;;;;;;;105.75;57.15;;;6.30;99.90;;;;;;5071036;28;20370;-80
2020/12/13 07:29:56;;;;;;;67.20;41.80;;;6.30;99.90;;;;;;5052978;28;20857;-80
2020/12/13 07:32:23;;;;;;;79.18;48.60;;;6.30;99.90;;;;;;5070675;28;20378;-80
2020/12/13 07:34:49;;;;;;;76.35;40.47;;;6.30;99.90;;;;;;5070419;28;20394;-79
2020/12/13 07:37:17;;;;;;;81.90;50.03;;;6.30;99.90;;;;;;5070548;28;20370;-79
2020/12/13 07:39:43;;;;;;;224.65;136.90;;;6.30;99.90;;;;;;5052642;28;20420;-79
2020/12/13 07:42:12;;;;;;;280.17;165.17;;;6.30;99.90;;;;;;5052491;28;20468;-80
2020/12/13 07:44:38;;;;;;;281.38;171.02;;;6.30;99.90;;;;;;5052258;28;20730;-80
2020/12/13 07:47:04;;;;;;;260.73;168.13;;;6.40;99.90;;;;;;5070287;28;20356;-80
2020/12/13 07:49:29;;;;;;;125.50;83.03;;;6.40;99.90;;;;;;5070612;28;20432;-80
2020/12/13 07:51:58;;;;;;;109.38;84.80;;;6.40;99.90;;;;;;5070049;28;20903;-80
2020/12/13 07:54:28;;;;;;;83.78;64.25;;;6.40;99.90;;;;;;5070377;28;20937;-80
2020/12/13 07:57:00;;;;;;;75.57;50.78;;;6.40;99.90;;;;;;5069912;28;20453;-80
2020/12/13 07:59:29;;;;;;;76.53;55.30;;;6.40;99.90;;;;;;5052046;28;20737;-80
2020/12/13 08:01:57;;;;;;;68.17;47.60;;;6.40;99.90;;;;;;5051900;28;20476;-80
2020/12/13 08:04:34;;;;;;;78.57;52.20;;;6.40;99.90;;;;;;5069972;28;20435;-80
2020/12/13 08:07:01;;;;;;;102.07;65.80;;;6.40;99.90;;;;;;5070289;28;20377;-81
2020/12/13 08:09:27;;;;;;;85.93;54.67;;;6.40;99.90;;;;;;5069972;28;20393;-81
2020/12/13 08:11:54;;;;;;;98.38;61.45;;;6.40;99.90;;;;;;5070281;28;20431;-81
2020/12/13 08:14:24;;;;;;;109.93;61.20;;;6.40;99.90;;;;;;5051689;28;20754;-81
2020/12/13 08:16:55;;;;;;;103.00;61.45;;;6.40;99.90;;;;;;5051832;28;20382;-81
2020/12/13 08:19:23;;;;;;;97.38;55.58;;;6.40;99.90;;;;;;5069611;28;20389;-81
2020/12/13 08:22:08;;;;;;;87.37;52.63;;;6.40;99.90;;;;;;5051753;28;21018;-80
2020/12/13 08:24:34;;;;;;;92.07;54.03;;;6.50;99.90;;;;;;5051544;28;20451;-80
2020/12/13 08:27:01;;;;;;;426.98;249.75;;;6.40;99.90;;;;;;5069650;28;20398;-80
2020/12/13 08:29:31;;;;;;;263.50;124.57;;;6.50;99.90;;;;;;5051478;28;20374;-81
2020/12/13 08:31:58;;;;;;;111.38;61.80;;;6.50;99.90;;;;;;5069818;28;20849;-81
2020/12/13 08:34:26;;;;;;;124.70;66.93;;;6.50;99.90;;;;;;5035626;28;20400;-81
2020/12/13 08:36:54;;;;;;;115.22;68.57;;;6.50;99.90;;;;;;5029508;28;20357;-80
2020/12/13 08:39:36;;;;;;;636.35;344.00;;;6.60;99.90;;;;;;5029499;28;20386;-81
2020/12/13 08:42:05;;;;;;;1006.05;518.70;;;6.50;99.90;;;;;;5029433;28;20431;-80
2020/12/13 08:44:33;;;;;;;731.78;383.05;;;6.60;99.90;;;;;;5029937;28;20365;-80
2020/12/13 08:47:19;;;;;;;387.95;185.15;;;6.60;99.90;;;;;;5029476;28;20381;-80
2020/12/13 08:49:48;;;;;;;272.75;137.02;;;6.60;99.90;;;;;;5029418;28;20392;-81
2020/12/13 08:52:21;;;;;;;207.85;113.35;;;6.50;99.90;;;;;;5028162;28;20377;-80
2020/12/13 08:54:51;;;;;;;103.47;63.50;;;6.50;99.90;;;;;;5029413;28;20915;-80
2020/12/13 08:57:34;;;;;;;100.37;64.90;;;6.50;99.90;;;;;;5029482;28;20849;-80
2020/12/13 09:00:08;;;;;;;101.65;67.85;;;6.50;99.90;;;;;;5028074;28;20373;-80
2020/12/13 09:02:34;;;;;;;104.97;65.57;;;6.50;99.90;;;;;;5027940;28;20516;-79
2020/12/13 09:05:01;;;;;;;110.03;69.73;;;6.50;99.90;;;;;;5029355;28;20452;-80
2020/12/13 09:07:33;;;;;;;96.10;63.50;;;6.50;99.90;;;;;;5029462;28;20817;-80
2020/12/13 09:10:08;;;;;;;91.65;61.33;;;6.50;99.90;;;;;;5031460;28;20389;-79
2020/12/13 09:12:35;;;;;;;124.88;80.60;;;6.50;99.90;;;;;;5032053;28;20408;-79
2020/12/13 09:15:11;;;;;;;148.27;94.83;;;6.50;99.90;;;;;;5033131;28;20432;-79
2020/12/13 09:17:37;;;;;;;104.18;62.72;;;6.50;99.90;;;;;;5031604;28;20432;-79
2020/12/13 09:20:04;;;;;;;98.80;55.55;;;6.40;99.90;;;;;;5033065;28;20370;-79
2020/12/13 09:22:30;;;;;;;128.82;69.72;;;6.40;99.90;;;;;;5033034;28;20376;-80
2020/12/13 09:24:58;;;;;;;256.98;143.73;;;6.40;99.90;;;;;;5031594;28;20388;-80
2020/12/13 09:27:24;;;;;;;254.18;136.65;;;6.40;99.90;;;;;;5032895;28;20511;-80
2020/12/13 09:29:51;;;;;;;208.60;119.70;;;6.40;99.90;;;;;;5032974;28;20373;-80
2020/12/13 09:32:18;;;;;;;143.35;80.38;;;6.40;99.90;;;;;;5032855;28;20361;-79
2020/12/13 09:34:45;;;;;;;112.30;63.40;;;6.50;99.90;;;;;;5063257;28;20386;-80
2020/12/13 09:37:13;;;;;;;119.32;57.10;;;6.50;99.90;;;;;;5054733;28;20492;-79
2020/12/13 09:39:40;;;;;;;148.93;70.27;;;6.50;99.90;;;;;;5054521;28;20813;-80
2020/12/13 09:42:10;;;;;;;124.65;67.22;;;6.50;99.90;;;;;;5054742;28;20369;-79
2020/12/13 09:44:36;;;;;;;213.82;129.68;;;6.50;99.90;;;;;;5072377;28;20370;-80
2020/12/13 09:47:02;;;;;;;142.75;83.57;;;6.40;99.90;;;;;;5054529;28;20467;-79
2020/12/13 09:49:29;;;;;;;157.43;87.70;;;6.50;99.90;;;;;;5072729;28;20459;-80
2020/12/13 09:52:00;;;;;;;164.95;94.53;;;6.50;99.90;;;;;;5072787;28;20358;-80
2020/12/13 09:54:26;;;;;;;157.20;95.70;;;6.50;99.90;;;;;;5072671;28;20440;-81
2020/12/13 09:56:52;;;;;;;135.23;82.15;;;6.60;99.90;;;;;;5072445;28;20362;-81
2020/12/13 09:59:19;;;;;;;162.52;101.28;;;6.60;99.90;;;;;;5072180;28;20876;-80
2020/12/13 10:01:45;;;;;;;114.60;70.07;;;6.50;99.90;;;;;;5072109;28;20398;-80
2020/12/13 10:04:11;;;;;;;161.57;98.57;;;6.60;99.90;;;;;;5072209;28;20369;-79
2020/12/13 10:09:15;;;;;;;151.50;97.07;;;6.60;99.90;;;;;;5072367;28;21185;-80
2020/12/13 10:11:41;;;;;;;104.03;63.03;;;6.60;99.90;;;;;;5072086;28;20380;-80
2020/12/13 10:14:11;;;;;;;85.93;53.42;;;6.60;99.90;;;;;;5072164;28;20370;-79
2020/12/13 10:16:38;;;;;;;101.27;68.10;;;6.60;99.90;;;;;;5053884;28;20823;-80
2020/12/13 10:19:05;;;;;;;100.80;68.32;;;6.60;99.90;;;;;;5071867;28;20400;-79
2020/12/13 10:21:32;;;;;;;107.22;73.15;;;6.60;99.90;;;;;;5070734;28;20713;-79
2020/12/13 10:23:58;;;;;;;104.38;67.90;;;6.60;99.90;;;;;;5071842;28;20365;-79
2020/12/13 10:26:26;;;;;;;99.50;62.90;;;6.60;99.90;;;;;;5071924;28;20390;-79
2020/12/13 10:28:53;;;;;;;92.07;62.65;;;6.60;99.90;;;;;;5054465;28;20413;-79
2020/12/13 10:31:19;;;;;;;84.65;53.03;;;6.60;99.90;;;;;;5073080;28;20409;-79
2020/12/13 10:33:46;;;;;;;81.55;50.92;;;6.60;99.90;;;;;;5071544;28;20401;-79
2020/12/13 10:36:13;;;;;;;93.05;60.30;;;6.60;99.90;;;;;;5071668;28;20385;-79
2020/12/13 10:38:40;;;;;;;117.20;71.40;;;6.50;99.90;;;;;;5053305;28;20764;-79
2020/12/13 10:41:08;;;;;;;120.75;75.57;;;6.50;99.90;;;;;;5071723;28;20362;-79
2020/12/13 10:43:34;;;;;;;115.25;69.88;;;6.50;99.90;;;;;;5071395;28;20770;-79
2020/12/13 10:46:05;;;;;;;136.48;78.18;;;6.50;99.90;;;;;;5053400;28;20366;-79
2020/12/13 10:48:32;;;;;;;135.63;86.93;;;6.50;99.90;;;;;;5053292;28;20495;-78
2020/12/13 10:50:59;;;;;;;126.88;78.07;;;6.50;99.90;;;;;;5071241;28;20457;-79
2020/12/13 10:53:26;;;;;;;122.70;68.13;;;6.60;99.90;;;;;;5071364;28;20725;-79
2020/12/13 10:55:52;;;;;;;117.57;67.10;;;6.60;99.90;;;;;;5071218;28;20362;-79
2020/12/13 10:58:18;;;;;;;114.47;63.20;;;6.60;99.90;;;;;;5053226;28;20395;-79
2020/12/13 11:00:44;;;;;;;119.55;62.67;;;6.60;99.90;;;;;;5071028;28;20397;-79
2020/12/13 11:03:10;;;;;;;132.07;68.38;;;6.60;99.90;;;;;;5071180;28;20358;-79
2020/12/13 11:05:36;;;;;;;152.45;84.28;;;6.60;99.90;;;;;;5070909;28;20366;-79
2020/12/13 11:08:02;;;;;;;151.07;84.67;;;6.60;99.90;;;;;;5052920;28;20393;-79
2020/12/13 11:10:28;;;;;;;146.98;83.20;;;6.60;99.90;;;;;;5071167;28;20382;-79
2020/12/13 11:12:54;;;;;;;116.68;64.25;;;6.60;99.90;;;;;;5070872;28;20381;-79
2020/12/13 11:15:20;;;;;;;120.03;67.15;;;6.60;99.90;;;;;;5052842;28;20737;-79
2020/12/13 11:17:46;;;;;;;130.80;72.37;;;6.70;99.90;;;;;;5052876;28;20529;-80
2020/12/13 11:20:12;;;;;;;133.98;75.97;;;6.60;99.90;;;;;;5070953;28;20493;-79
2020/12/13 11:22:38;;;;;;;135.73;76.82;;;6.60;99.90;;;;;;5070709;28;20450;-79
2020/12/13 11:25:04;;;;;;;136.07;79.47;;;6.70;99.90;;;;;;5070889;28;20769;-79
2020/12/13 11:27:30;;;;;;;110.70;69.32;;;6.70;99.90;;;;;;5070441;28;20718;-79
2020/12/13 11:29:56;;;;;;;117.23;75.40;;;6.70;99.90;;;;;;5070939;28;20370;-79
2020/12/13 11:32:26;;;;;;;100.57;69.60;;;6.70;99.90;;;;;;5070190;28;20385;-79
2020/12/13 11:34:52;;;;;;;110.20;75.22;;;6.60;99.90;;;;;;5070486;28;20725;-79
2020/12/13 11:37:18;;;;;;;93.40;63.37;;;6.60;99.90;;;;;;5070263;28;20366;-80
2020/12/13 11:39:44;;;;;;;84.00;53.10;;;6.60;99.90;;;;;;5070429;28;20749;-80
2020/12/13 11:42:10;;;;;;;86.83;56.27;;;6.60;99.90;;;;;;5070259;28;20370;-79
2020/12/13 11:44:36;;;;;;;90.30;59.10;;;6.60;99.90;;;;;;5052586;28;20362;-79
2020/12/13 11:47:02;;;;;;;85.87;56.33;;;6.60;99.90;;;;;;5070203;28;20453;-79
2020/12/13 11:49:28;;;;;;;91.03;57.55;;;6.70;99.90;;;;;;5070156;28;20374;-78
2020/12/13 11:51:53;;;;;;;80.38;53.20;;;6.70;99.90;;;;;;5070151;28;20377;-79
2020/12/13 11:54:19;;;;;;;90.90;55.75;;;6.70;99.90;;;;;;5052041;28;20443;-79
2020/12/13 11:56:45;;;;;;;88.53;59.35;;;6.70;99.90;;;;;;5052080;28;20378;-79
2020/12/13 11:59:11;;;;;;;87.07;55.80;;;6.70;99.90;;;;;;5051827;28;20393;-79
2020/12/13 12:01:36;;;;;;;83.90;56.35;;;6.70;99.90;;;;;;5069988;28;20717;-80
2020/12/13 12:04:02;;;;;;;77.93;52.13;;;6.70;99.90;;;;;;5051828;28;20377;-79
2020/12/13 12:06:29;;;;;;;86.97;55.70;;;6.70;99.90;;;;;;5069910;28;20410;-78
2020/12/13 12:08:55;;;;;;;180.05;111.57;;;6.70;99.90;;;;;;5069818;28;20373;-78
2020/12/13 12:11:25;;;;;;;250.32;127.28;;;6.70;99.90;;;;;;5052028;28;20386;-79
2020/12/13 12:13:51;;;;;;;290.50;148.77;;;6.70;99.90;;;;;;5052002;28;20382;-79
2020/12/13 12:16:28;;;;;;;155.40;83.53;;;6.70;99.90;;;;;;5051884;28;20783;-79
2020/12/13 12:18:55;;;;;;;290.23;144.35;;;6.70;99.90;;;;;;5069748;28;20385;-79
2020/12/13 12:21:23;;;;;;;347.40;180.60;;;6.60;99.90;;;;;;5069527;28;20373;-79
2020/12/13 12:23:50;;;;;;;298.08;142.88;;;6.70;99.90;;;;;;5069740;28;20845;-78
2020/12/13 12:26:16;;;;;;;269.40;131.75;;;6.70;99.90;;;;;;5069500;28;20362;-79
2020/12/13 12:28:42;;;;;;;300.58;151.43;;;6.70;99.90;;;;;;5069624;28;20432;-79
2020/12/13 12:31:08;;;;;;;204.97;110.80;;;6.70;99.90;;;;;;5051432;28;20948;-79
2020/12/13 12:33:34;;;;;;;328.13;168.40;;;6.70;99.90;;;;;;5069437;28;20416;-79
2020/12/13 12:36:00;;;;;;;229.80;121.55;;;6.60;99.90;;;;;;5069543;28;20436;-79
2020/12/13 12:38:26;;;;;;;114.93;68.47;;;6.60;99.90;;;;;;5069561;28;21266;-79
2020/12/13 12:40:51;;;;;;;101.30;62.13;;;6.60;99.90;;;;;;5051378;28;20374;-79